sensor_id;sensor_type;location;lat;lon;timestamp;P1;durP1;ratioP1;P2;durP2;ratioP2
32228;SDS011;18717;48.034;11.186;2024-01-30T00:02:16;12.57;;;10.77;;
32228;SDS011;18717;48.034;11.186;2024-01-30T00:04:44;14.90;;;10.95;;
32228;SDS011;18717;48.034;11.186;2024-01-30T00:07:13;13.73;;;11.00;;
32228;SDS011;18717;48.034;11.186;2024-01-30T00:09:41;17.80;;;10.93;;
32228;SDS011;18717;48.034;11.186;2024-01-30T00:12:09;17.63;;;11.20;;
32228;SDS011;18717;48.034;11.186;2024-01-30T00:14:37;14.15;;;10.50;;
32228;SDS011;18717;48.034;11.186;2024-01-30T00:17:05;12.80;;;10.75;;
32228;SDS011;18717;48.034;11.186;2024-01-30T00:19:32;17.63;;;10.88;;
32228;SDS011;18717;48.034;11.186;2024-01-30T00:22:00;14.05;;;10.95;;
32228;SDS011;18717;48.034;11.186;2024-01-30T00:24:29;14.77;;;11.68;;
32228;SDS011;18717;48.034;11.186;2024-01-30T00:26:57;16.15;;;11.45;;
32228;SDS011;18717;48.034;11.186;2024-01-30T00:29:25;16.40;;;11.77;;
32228;SDS011;18717;48.034;11.186;2024-01-30T00:31:56;12.18;;;10.88;;
32228;SDS011;18717;48.034;11.186;2024-01-30T00:34:24;13.10;;;10.98;;
32228;SDS011;18717;48.034;11.186;2024-01-30T00:36:52;14.60;;;11.23;;
32228;SDS011;18717;48.034;11.186;2024-01-30T00:39:20;14.35;;;10.82;;
32228;SDS011;18717;48.034;11.186;2024-01-30T00:41:49;16.27;;;11.75;;
32228;SDS011;18717;48.034;11.186;2024-01-30T00:44:17;11.93;;;10.52;;
32228;SDS011;18717;48.034;11.186;2024-01-30T00:46:45;14.75;;;10.73;;
32228;SDS011;18717;48.034;11.186;2024-01-30T00:49:12;11.45;;;10.35;;
32228;SDS011;18717;48.034;11.186;2024-01-30T00:51:40;14.13;;;10.63;;
32228;SDS011;18717;48.034;11.186;2024-01-30T00:54:08;16.35;;;11.00;;
32228;SDS011;18717;48.034;11.186;2024-01-30T00:56:36;13.90;;;10.75;;
32228;SDS011;18717;48.034;11.186;2024-01-30T00:59:05;15.80;;;10.50;;
32228;SDS011;18717;48.034;11.186;2024-01-30T01:01:33;14.57;;;11.48;;
32228;SDS011;18717;48.034;11.186;2024-01-30T01:04:01;14.73;;;11.25;;
32228;SDS011;18717;48.034;11.186;2024-01-30T01:06:29;13.27;;;11.15;;
32228;SDS011;18717;48.034;11.186;2024-01-30T01:08:57;14.20;;;10.32;;
32228;SDS011;18717;48.034;11.186;2024-01-30T01:11:27;15.95;;;11.05;;
32228;SDS011;18717;48.034;11.186;2024-01-30T01:13:55;18.45;;;11.85;;
32228;SDS011;18717;48.034;11.186;2024-01-30T01:16:25;16.67;;;11.05;;
32228;SDS011;18717;48.034;11.186;2024-01-30T01:18:52;14.98;;;10.93;;
32228;SDS011;18717;48.034;11.186;2024-01-30T01:21:20;14.43;;;10.77;;
32228;SDS011;18717;48.034;11.186;2024-01-30T01:23:49;11.93;;;10.52;;
32228;SDS011;18717;48.034;11.186;2024-01-30T01:26:17;13.32;;;10.23;;
32228;SDS011;18717;48.034;11.186;2024-01-30T01:28:44;12.80;;;10.38;;
32228;SDS011;18717;48.034;11.186;2024-01-30T01:31:12;17.65;;;11.57;;
32228;SDS011;18717;48.034;11.186;2024-01-30T01:33:42;11.52;;;10.15;;
32228;SDS011;18717;48.034;11.186;2024-01-30T01:36:09;16.08;;;10.18;;
32228;SDS011;18717;48.034;11.186;2024-01-30T01:38:37;14.90;;;11.27;;
32228;SDS011;18717;48.034;11.186;2024-01-30T01:41:05;16.05;;;10.65;;
32228;SDS011;18717;48.034;11.186;2024-01-30T01:43:33;13.70;;;10.90;;
32228;SDS011;18717;48.034;11.186;2024-01-30T01:46:00;15.82;;;9.68;;
32228;SDS011;18717;48.034;11.186;2024-01-30T01:48:28;14.80;;;10.38;;
32228;SDS011;18717;48.034;11.186;2024-01-30T01:50:58;13.07;;;10.07;;
32228;SDS011;18717;48.034;11.186;2024-01-30T01:53:26;15.55;;;10.10;;
32228;SDS011;18717;48.034;11.186;2024-01-30T01:55:54;14.02;;;10.15;;
32228;SDS011;18717;48.034;11.186;2024-01-30T01:58:22;11.80;;;9.93;;
32228;SDS011;18717;48.034;11.186;2024-01-30T02:00:55;13.20;;;9.43;;
32228;SDS011;18717;48.034;11.186;2024-01-30T02:03:24;15.30;;;10.65;;
32228;SDS011;18717;48.034;11.186;2024-01-30T02:05:51;17.95;;;11.07;;
32228;SDS011;18717;48.034;11.186;2024-01-30T02:08:21;16.13;;;10.88;;
32228;SDS011;18717;48.034;11.186;2024-01-30T02:10:48;15.32;;;11.05;;
32228;SDS011;18717;48.034;11.186;2024-01-30T02:13:16;19.23;;;10.07;;
32228;SDS011;18717;48.034;11.186;2024-01-30T02:15:48;10.70;;;9.48;;
32228;SDS011;18717;48.034;11.186;2024-01-30T02:18:16;18.27;;;11.75;;
32228;SDS011;18717;48.034;11.186;2024-01-30T02:20:44;11.05;;;9.95;;
32228;SDS011;18717;48.034;11.186;2024-01-30T02:23:13;12.98;;;10.38;;
32228;SDS011;18717;48.034;11.186;2024-01-30T02:25:43;12.25;;;10.10;;
32228;SDS011;18717;48.034;11.186;2024-01-30T02:28:11;12.27;;;10.38;;
32228;SDS011;18717;48.034;11.186;2024-01-30T02:30:39;11.52;;;9.20;;
32228;SDS011;18717;48.034;11.186;2024-01-30T02:33:07;13.45;;;9.65;;
32228;SDS011;18717;48.034;11.186;2024-01-30T02:35:35;13.27;;;9.60;;
32228;SDS011;18717;48.034;11.186;2024-01-30T02:38:03;11.90;;;10.07;;
32228;SDS011;18717;48.034;11.186;2024-01-30T02:40:32;10.98;;;9.80;;
32228;SDS011;18717;48.034;11.186;2024-01-30T02:43:00;10.73;;;9.10;;
32228;SDS011;18717;48.034;11.186;2024-01-30T02:45:29;10.15;;;9.15;;
32228;SDS011;18717;48.034;11.186;2024-01-30T02:47:57;15.07;;;10.35;;
32228;SDS011;18717;48.034;11.186;2024-01-30T02:50:25;13.57;;;9.90;;
32228;SDS011;18717;48.034;11.186;2024-01-30T02:52:52;15.27;;;10.50;;
32228;SDS011;18717;48.034;11.186;2024-01-30T02:55:20;15.90;;;10.32;;
32228;SDS011;18717;48.034;11.186;2024-01-30T02:57:49;13.98;;;10.27;;
32228;SDS011;18717;48.034;11.186;2024-01-30T03:00:17;17.23;;;10.45;;
32228;SDS011;18717;48.034;11.186;2024-01-30T03:02:47;13.48;;;10.05;;
32228;SDS011;18717;48.034;11.186;2024-01-30T03:05:14;14.07;;;10.10;;
32228;SDS011;18717;48.034;11.186;2024-01-30T03:07:42;15.10;;;10.98;;
32228;SDS011;18717;48.034;11.186;2024-01-30T03:10:10;15.90;;;10.35;;
32228;SDS011;18717;48.034;11.186;2024-01-30T03:12:38;14.80;;;9.60;;
32228;SDS011;18717;48.034;11.186;2024-01-30T03:15:07;11.57;;;9.30;;
32228;SDS011;18717;48.034;11.186;2024-01-30T03:17:36;15.20;;;9.18;;
32228;SDS011;18717;48.034;11.186;2024-01-30T03:20:04;13.98;;;9.15;;
32228;SDS011;18717;48.034;11.186;2024-01-30T03:22:33;12.50;;;8.98;;
32228;SDS011;18717;48.034;11.186;2024-01-30T03:25:01;15.10;;;9.30;;
32228;SDS011;18717;48.034;11.186;2024-01-30T03:27:29;10.05;;;8.55;;
32228;SDS011;18717;48.034;11.186;2024-01-30T03:29:57;14.27;;;10.10;;
32228;SDS011;18717;48.034;11.186;2024-01-30T03:32:26;11.57;;;9.32;;
32228;SDS011;18717;48.034;11.186;2024-01-30T03:34:54;14.15;;;9.27;;
32228;SDS011;18717;48.034;11.186;2024-01-30T03:37:22;10.57;;;8.85;;
32228;SDS011;18717;48.034;11.186;2024-01-30T03:39:50;15.27;;;9.75;;
32228;SDS011;18717;48.034;11.186;2024-01-30T03:42:17;10.55;;;9.40;;
32228;SDS011;18717;48.034;11.186;2024-01-30T03:44:45;12.55;;;9.48;;
32228;SDS011;18717;48.034;11.186;2024-01-30T03:47:13;10.77;;;9.30;;
32228;SDS011;18717;48.034;11.186;2024-01-30T03:49:42;11.73;;;9.68;;
32228;SDS011;18717;48.034;11.186;2024-01-30T03:52:10;12.07;;;8.90;;
32228;SDS011;18717;48.034;11.186;2024-01-30T03:54:38;10.20;;;9.27;;
32228;SDS011;18717;48.034;11.186;2024-01-30T03:57:06;10.75;;;9.65;;
32228;SDS011;18717;48.034;11.186;2024-01-30T03:59:33;11.07;;;8.75;;
32228;SDS011;18717;48.034;11.186;2024-01-30T04:02:01;10.68;;;9.05;;
32228;SDS011;18717;48.034;11.186;2024-01-30T04:04:29;11.55;;;8.90;;
32228;SDS011;18717;48.034;11.186;2024-01-30T04:06:59;12.50;;;10.23;;
32228;SDS011;18717;48.034;11.186;2024-01-30T04:09:27;11.70;;;9.13;;
32228;SDS011;18717;48.034;11.186;2024-01-30T04:11:55;11.32;;;9.57;;
32228;SDS011;18717;48.034;11.186;2024-01-30T04:14:22;13.45;;;9.95;;
32228;SDS011;18717;48.034;11.186;2024-01-30T04:16:50;15.23;;;9.57;;
32228;SDS011;18717;48.034;11.186;2024-01-30T04:19:17;10.30;;;9.18;;
32228;SDS011;18717;48.034;11.186;2024-01-30T04:21:45;12.85;;;9.75;;
32228;SDS011;18717;48.034;11.186;2024-01-30T04:24:14;12.63;;;9.45;;
32228;SDS011;18717;48.034;11.186;2024-01-30T04:26:44;10.07;;;9.13;;
32228;SDS011;18717;48.034;11.186;2024-01-30T04:29:12;9.40;;;8.35;;
32228;SDS011;18717;48.034;11.186;2024-01-30T04:31:40;11.50;;;8.93;;
32228;SDS011;18717;48.034;11.186;2024-01-30T04:34:08;10.18;;;9.10;;
32228;SDS011;18717;48.034;11.186;2024-01-30T04:36:36;10.50;;;9.00;;
32228;SDS011;18717;48.034;11.186;2024-01-30T04:39:03;11.02;;;9.38;;
32228;SDS011;18717;48.034;11.186;2024-01-30T04:41:33;10.40;;;8.52;;
32228;SDS011;18717;48.034;11.186;2024-01-30T04:44:00;9.73;;;8.20;;
32228;SDS011;18717;48.034;11.186;2024-01-30T04:46:28;15.02;;;8.60;;
32228;SDS011;18717;48.034;11.186;2024-01-30T04:48:56;9.50;;;8.68;;
32228;SDS011;18717;48.034;11.186;2024-01-30T04:51:24;12.65;;;9.20;;
32228;SDS011;18717;48.034;11.186;2024-01-30T04:53:52;10.85;;;8.55;;
32228;SDS011;18717;48.034;11.186;2024-01-30T04:56:19;11.18;;;8.82;;
32228;SDS011;18717;48.034;11.186;2024-01-30T04:58:48;11.77;;;9.05;;
32228;SDS011;18717;48.034;11.186;2024-01-30T05:01:16;10.02;;;8.98;;
32228;SDS011;18717;48.034;11.186;2024-01-30T05:03:44;10.90;;;9.23;;
32228;SDS011;18717;48.034;11.186;2024-01-30T05:06:12;10.23;;;8.75;;
32228;SDS011;18717;48.034;11.186;2024-01-30T05:08:40;10.38;;;9.10;;
32228;SDS011;18717;48.034;11.186;2024-01-30T05:11:08;11.05;;;8.35;;
32228;SDS011;18717;48.034;11.186;2024-01-30T05:13:37;9.82;;;8.40;;
32228;SDS011;18717;48.034;11.186;2024-01-30T05:16:06;9.85;;;8.93;;
32228;SDS011;18717;48.034;11.186;2024-01-30T05:18:34;10.48;;;8.05;;
32228;SDS011;18717;48.034;11.186;2024-01-30T05:21:02;12.68;;;7.70;;
32228;SDS011;18717;48.034;11.186;2024-01-30T05:23:30;11.65;;;8.63;;
32228;SDS011;18717;48.034;11.186;2024-01-30T05:25:58;8.02;;;7.28;;
32228;SDS011;18717;48.034;11.186;2024-01-30T05:28:27;9.82;;;8.68;;
32228;SDS011;18717;48.034;11.186;2024-01-30T05:30:56;9.32;;;8.32;;
32228;SDS011;18717;48.034;11.186;2024-01-30T05:33:25;8.40;;;7.47;;
32228;SDS011;18717;48.034;11.186;2024-01-30T05:35:53;10.05;;;8.15;;
32228;SDS011;18717;48.034;11.186;2024-01-30T05:38:21;11.00;;;8.65;;
32228;SDS011;18717;48.034;11.186;2024-01-30T05:40:49;11.90;;;8.30;;
32228;SDS011;18717;48.034;11.186;2024-01-30T05:43:17;8.52;;;7.68;;
32228;SDS011;18717;48.034;11.186;2024-01-30T05:45:45;9.68;;;8.15;;
32228;SDS011;18717;48.034;11.186;2024-01-30T05:48:12;9.48;;;8.48;;
32228;SDS011;18717;48.034;11.186;2024-01-30T05:50:41;10.52;;;7.60;;
32228;SDS011;18717;48.034;11.186;2024-01-30T05:53:09;8.10;;;7.47;;
32228;SDS011;18717;48.034;11.186;2024-01-30T05:55:37;10.90;;;8.80;;
32228;SDS011;18717;48.034;11.186;2024-01-30T05:58:05;21.60;;;15.48;;
32228;SDS011;18717;48.034;11.186;2024-01-30T06:00:33;29.45;;;15.25;;
32228;SDS011;18717;48.034;11.186;2024-01-30T06:03:00;11.48;;;8.40;;
32228;SDS011;18717;48.034;11.186;2024-01-30T06:05:28;13.43;;;10.27;;
32228;SDS011;18717;48.034;11.186;2024-01-30T06:07:57;17.45;;;10.98;;
32228;SDS011;18717;48.034;11.186;2024-01-30T06:10:25;13.80;;;10.95;;
32228;SDS011;18717;48.034;11.186;2024-01-30T06:12:53;19.67;;;13.07;;
32228;SDS011;18717;48.034;11.186;2024-01-30T06:15:21;21.88;;;14.60;;
32228;SDS011;18717;48.034;11.186;2024-01-30T06:17:48;16.45;;;11.73;;
32228;SDS011;18717;48.034;11.186;2024-01-30T06:20:16;12.10;;;10.68;;
32228;SDS011;18717;48.034;11.186;2024-01-30T06:22:44;10.88;;;9.10;;
32228;SDS011;18717;48.034;11.186;2024-01-30T06:25:13;9.52;;;8.57;;
32228;SDS011;18717;48.034;11.186;2024-01-30T06:27:43;9.10;;;8.20;;
32228;SDS011;18717;48.034;11.186;2024-01-30T06:30:11;8.55;;;7.35;;
32228;SDS011;18717;48.034;11.186;2024-01-30T06:32:39;9.32;;;7.93;;
32228;SDS011;18717;48.034;11.186;2024-01-30T06:35:08;9.10;;;7.60;;
32228;SDS011;18717;48.034;11.186;2024-01-30T06:37:36;8.95;;;8.02;;
32228;SDS011;18717;48.034;11.186;2024-01-30T06:40:05;8.43;;;7.60;;
32228;SDS011;18717;48.034;11.186;2024-01-30T06:42:35;9.40;;;7.80;;
32228;SDS011;18717;48.034;11.186;2024-01-30T06:45:03;7.80;;;7.18;;
32228;SDS011;18717;48.034;11.186;2024-01-30T06:47:31;7.95;;;7.20;;
32228;SDS011;18717;48.034;11.186;2024-01-30T06:49:59;10.27;;;8.45;;
32228;SDS011;18717;48.034;11.186;2024-01-30T06:52:28;8.75;;;7.93;;
32228;SDS011;18717;48.034;11.186;2024-01-30T06:54:56;10.82;;;9.25;;
32228;SDS011;18717;48.034;11.186;2024-01-30T06:57:24;9.45;;;8.20;;
32228;SDS011;18717;48.034;11.186;2024-01-30T06:59:55;8.93;;;7.20;;
32228;SDS011;18717;48.034;11.186;2024-01-30T07:02:23;14.85;;;8.25;;
32228;SDS011;18717;48.034;11.186;2024-01-30T07:04:51;10.20;;;9.13;;
32228;SDS011;18717;48.034;11.186;2024-01-30T07:07:19;11.07;;;8.63;;
32228;SDS011;18717;48.034;11.186;2024-01-30T07:09:47;9.32;;;8.30;;
32228;SDS011;18717;48.034;11.186;2024-01-30T07:12:18;12.10;;;8.65;;
32228;SDS011;18717;48.034;11.186;2024-01-30T07:14:46;13.88;;;9.85;;
32228;SDS011;18717;48.034;11.186;2024-01-30T07:17:16;11.80;;;8.27;;
32228;SDS011;18717;48.034;11.186;2024-01-30T07:19:43;10.57;;;8.88;;
32228;SDS011;18717;48.034;11.186;2024-01-30T07:22:11;11.15;;;10.02;;
32228;SDS011;18717;48.034;11.186;2024-01-30T07:24:42;10.10;;;9.20;;
32228;SDS011;18717;48.034;11.186;2024-01-30T07:27:11;10.95;;;9.85;;
32228;SDS011;18717;48.034;11.186;2024-01-30T07:29:39;9.95;;;8.73;;
32228;SDS011;18717;48.034;11.186;2024-01-30T07:32:07;34.97;;;16.45;;
32228;SDS011;18717;48.034;11.186;2024-01-30T07:34:36;29.48;;;15.52;;
32228;SDS011;18717;48.034;11.186;2024-01-30T07:37:18;28.52;;;14.98;;
32228;SDS011;18717;48.034;11.186;2024-01-30T07:39:46;36.63;;;17.38;;
32228;SDS011;18717;48.034;11.186;2024-01-30T07:42:14;25.52;;;13.90;;
32228;SDS011;18717;48.034;11.186;2024-01-30T07:44:42;49.70;;;23.25;;
32228;SDS011;18717;48.034;11.186;2024-01-30T07:47:10;43.58;;;20.88;;
32228;SDS011;18717;48.034;11.186;2024-01-30T07:49:39;24.38;;;15.13;;
32228;SDS011;18717;48.034;11.186;2024-01-30T07:52:07;17.38;;;13.43;;
32228;SDS011;18717;48.034;11.186;2024-01-30T07:54:35;25.27;;;14.02;;
32228;SDS011;18717;48.034;11.186;2024-01-30T07:57:05;19.38;;;15.27;;
32228;SDS011;18717;48.034;11.186;2024-01-30T07:59:33;22.40;;;13.23;;
32228;SDS011;18717;48.034;11.186;2024-01-30T08:02:00;14.13;;;11.20;;
32228;SDS011;18717;48.034;11.186;2024-01-30T08:04:29;20.08;;;12.98;;
32228;SDS011;18717;48.034;11.186;2024-01-30T08:06:58;31.13;;;16.58;;
32228;SDS011;18717;48.034;11.186;2024-01-30T08:09:26;18.17;;;11.90;;
32228;SDS011;18717;48.034;11.186;2024-01-30T08:11:54;28.65;;;16.17;;
32228;SDS011;18717;48.034;11.186;2024-01-30T08:14:22;16.40;;;12.75;;
32228;SDS011;18717;48.034;11.186;2024-01-30T08:16:49;21.00;;;11.77;;
32228;SDS011;18717;48.034;11.186;2024-01-30T08:19:17;16.83;;;11.30;;
32228;SDS011;18717;48.034;11.186;2024-01-30T08:21:45;14.82;;;10.82;;
32228;SDS011;18717;48.034;11.186;2024-01-30T08:24:14;20.63;;;13.20;;
32228;SDS011;18717;48.034;11.186;2024-01-30T08:26:42;15.88;;;11.65;;
32228;SDS011;18717;48.034;11.186;2024-01-30T08:29:10;14.65;;;11.40;;
32228;SDS011;18717;48.034;11.186;2024-01-30T08:31:38;14.45;;;11.50;;
32228;SDS011;18717;48.034;11.186;2024-01-30T08:34:06;15.45;;;11.30;;
32228;SDS011;18717;48.034;11.186;2024-01-30T08:36:34;10.68;;;9.65;;
32228;SDS011;18717;48.034;11.186;2024-01-30T08:39:02;11.10;;;8.50;;
32228;SDS011;18717;48.034;11.186;2024-01-30T08:41:33;14.07;;;11.82;;
32228;SDS011;18717;48.034;11.186;2024-01-30T08:44:01;10.82;;;8.90;;
32228;SDS011;18717;48.034;11.186;2024-01-30T08:46:29;9.82;;;8.82;;
32228;SDS011;18717;48.034;11.186;2024-01-30T08:48:57;10.00;;;8.98;;
32228;SDS011;18717;48.034;11.186;2024-01-30T08:51:25;12.35;;;8.80;;
32228;SDS011;18717;48.034;11.186;2024-01-30T08:53:53;9.70;;;8.82;;
32228;SDS011;18717;48.034;11.186;2024-01-30T08:56:21;9.73;;;8.88;;
32228;SDS011;18717;48.034;11.186;2024-01-30T08:58:50;11.73;;;10.27;;
32228;SDS011;18717;48.034;11.186;2024-01-30T09:01:18;9.98;;;9.05;;
32228;SDS011;18717;48.034;11.186;2024-01-30T09:03:45;9.43;;;8.48;;
32228;SDS011;18717;48.034;11.186;2024-01-30T09:06:13;10.23;;;9.32;;
32228;SDS011;18717;48.034;11.186;2024-01-30T09:08:41;9.98;;;9.05;;
32228;SDS011;18717;48.034;11.186;2024-01-30T09:11:09;9.57;;;8.68;;
32228;SDS011;18717;48.034;11.186;2024-01-30T09:13:37;9.43;;;8.05;;
32228;SDS011;18717;48.034;11.186;2024-01-30T09:16:07;9.77;;;8.77;;
32228;SDS011;18717;48.034;11.186;2024-01-30T09:18:35;9.57;;;8.73;;
32228;SDS011;18717;48.034;11.186;2024-01-30T09:21:03;9.00;;;8.20;;
32228;SDS011;18717;48.034;11.186;2024-01-30T09:23:31;9.82;;;8.93;;
32228;SDS011;18717;48.034;11.186;2024-01-30T09:25:59;9.38;;;8.48;;
32228;SDS011;18717;48.034;11.186;2024-01-30T09:28:27;9.00;;;8.30;;
32228;SDS011;18717;48.034;11.186;2024-01-30T09:30:56;9.57;;;8.77;;
32228;SDS011;18717;48.034;11.186;2024-01-30T09:33:25;9.52;;;8.63;;
32228;SDS011;18717;48.034;11.186;2024-01-30T09:35:53;9.38;;;8.50;;
32228;SDS011;18717;48.034;11.186;2024-01-30T09:38:21;9.63;;;8.77;;
32228;SDS011;18717;48.034;11.186;2024-01-30T09:40:50;9.70;;;8.90;;
32228;SDS011;18717;48.034;11.186;2024-01-30T09:43:22;10.13;;;9.40;;
32228;SDS011;18717;48.034;11.186;2024-01-30T09:45:52;9.52;;;8.75;;
32228;SDS011;18717;48.034;11.186;2024-01-30T09:48:21;10.30;;;9.52;;
32228;SDS011;18717;48.034;11.186;2024-01-30T09:50:50;10.60;;;9.82;;
32228;SDS011;18717;48.034;11.186;2024-01-30T09:53:19;10.07;;;9.18;;
32228;SDS011;18717;48.034;11.186;2024-01-30T09:55:47;10.85;;;9.95;;
32228;SDS011;18717;48.034;11.186;2024-01-30T09:58:18;9.75;;;8.95;;
32228;SDS011;18717;48.034;11.186;2024-01-30T10:00:46;9.43;;;8.82;;
32228;SDS011;18717;48.034;11.186;2024-01-30T10:03:14;10.02;;;9.35;;
32228;SDS011;18717;48.034;11.186;2024-01-30T10:05:42;10.48;;;9.68;;
32228;SDS011;18717;48.034;11.186;2024-01-30T10:08:13;10.73;;;9.85;;
32228;SDS011;18717;48.034;11.186;2024-01-30T10:10:46;10.07;;;9.27;;
32228;SDS011;18717;48.034;11.186;2024-01-30T10:13:14;10.50;;;9.80;;
32228;SDS011;18717;48.034;11.186;2024-01-30T10:15:42;10.75;;;9.98;;
32228;SDS011;18717;48.034;11.186;2024-01-30T10:18:09;11.25;;;10.20;;
32228;SDS011;18717;48.034;11.186;2024-01-30T10:20:37;10.70;;;10.00;;
32228;SDS011;18717;48.034;11.186;2024-01-30T10:23:05;10.50;;;9.68;;
32228;SDS011;18717;48.034;11.186;2024-01-30T10:25:35;9.95;;;9.27;;
32228;SDS011;18717;48.034;11.186;2024-01-30T10:28:03;10.88;;;10.07;;
32228;SDS011;18717;48.034;11.186;2024-01-30T10:30:32;10.85;;;10.15;;
32228;SDS011;18717;48.034;11.186;2024-01-30T10:32:59;10.80;;;9.98;;
32228;SDS011;18717;48.034;11.186;2024-01-30T10:35:27;10.43;;;9.73;;
32228;SDS011;18717;48.034;11.186;2024-01-30T10:37:56;10.32;;;9.60;;
32228;SDS011;18717;48.034;11.186;2024-01-30T10:40:25;10.57;;;9.70;;
32228;SDS011;18717;48.034;11.186;2024-01-30T10:42:56;9.93;;;9.32;;
32228;SDS011;18717;48.034;11.186;2024-01-30T10:45:30;10.27;;;9.35;;
32228;SDS011;18717;48.034;11.186;2024-01-30T10:47:59;9.90;;;9.15;;
32228;SDS011;18717;48.034;11.186;2024-01-30T10:50:27;10.82;;;10.20;;
32228;SDS011;18717;48.034;11.186;2024-01-30T10:52:56;10.18;;;9.43;;
32228;SDS011;18717;48.034;11.186;2024-01-30T10:55:25;10.10;;;9.50;;
32228;SDS011;18717;48.034;11.186;2024-01-30T10:57:56;10.60;;;9.90;;
32228;SDS011;18717;48.034;11.186;2024-01-30T11:00:25;11.10;;;10.25;;
32228;SDS011;18717;48.034;11.186;2024-01-30T11:02:53;12.95;;;9.70;;
32228;SDS011;18717;48.034;11.186;2024-01-30T11:05:24;10.65;;;10.05;;
32228;SDS011;18717;48.034;11.186;2024-01-30T11:07:58;10.77;;;10.07;;
32228;SDS011;18717;48.034;11.186;2024-01-30T11:10:26;10.57;;;9.95;;
32228;SDS011;18717;48.034;11.186;2024-01-30T11:12:56;10.68;;;10.07;;
32228;SDS011;18717;48.034;11.186;2024-01-30T11:15:24;10.55;;;9.95;;
32228;SDS011;18717;48.034;11.186;2024-01-30T11:17:52;9.93;;;9.43;;
32228;SDS011;18717;48.034;11.186;2024-01-30T11:20:21;10.73;;;10.02;;
32228;SDS011;18717;48.034;11.186;2024-01-30T11:22:50;10.15;;;9.65;;
32228;SDS011;18717;48.034;11.186;2024-01-30T11:28:24;10.70;;;10.05;;
32228;SDS011;18717;48.034;11.186;2024-01-30T11:31:02;10.13;;;9.43;;
32228;SDS011;18717;48.034;11.186;2024-01-30T11:33:31;10.32;;;9.75;;
32228;SDS011;18717;48.034;11.186;2024-01-30T11:36:00;9.90;;;9.50;;
32228;SDS011;18717;48.034;11.186;2024-01-30T11:38:34;10.38;;;9.80;;
32228;SDS011;18717;48.034;11.186;2024-01-30T11:41:02;10.00;;;9.38;;
32228;SDS011;18717;48.034;11.186;2024-01-30T11:43:35;10.07;;;9.63;;
32228;SDS011;18717;48.034;11.186;2024-01-30T11:46:06;10.60;;;10.10;;
32228;SDS011;18717;48.034;11.186;2024-01-30T11:48:36;10.27;;;9.68;;
32228;SDS011;18717;48.034;11.186;2024-01-30T11:51:05;10.80;;;10.30;;
32228;SDS011;18717;48.034;11.186;2024-01-30T11:53:33;9.70;;;9.27;;
32228;SDS011;18717;48.034;11.186;2024-01-30T11:56:01;10.65;;;10.13;;
32228;SDS011;18717;48.034;11.186;2024-01-30T11:58:30;10.05;;;9.55;;
32228;SDS011;18717;48.034;11.186;2024-01-30T12:00:59;10.60;;;10.10;;
32228;SDS011;18717;48.034;11.186;2024-01-30T12:03:27;10.25;;;9.77;;
32228;SDS011;18717;48.034;11.186;2024-01-30T12:05:55;10.00;;;9.50;;
32228;SDS011;18717;48.034;11.186;2024-01-30T12:08:25;10.05;;;9.45;;
32228;SDS011;18717;48.034;11.186;2024-01-30T12:10:56;11.07;;;10.25;;
32228;SDS011;18717;48.034;11.186;2024-01-30T12:13:28;10.55;;;10.05;;
32228;SDS011;18717;48.034;11.186;2024-01-30T12:16:03;10.07;;;9.48;;
32228;SDS011;18717;48.034;11.186;2024-01-30T12:18:34;9.45;;;9.00;;
32228;SDS011;18717;48.034;11.186;2024-01-30T12:21:02;9.90;;;9.40;;
32228;SDS011;18717;48.034;11.186;2024-01-30T12:23:30;9.90;;;9.40;;
32228;SDS011;18717;48.034;11.186;2024-01-30T12:25:58;10.05;;;9.55;;
32228;SDS011;18717;48.034;11.186;2024-01-30T12:28:26;10.18;;;9.57;;
32228;SDS011;18717;48.034;11.186;2024-01-30T12:30:55;10.43;;;9.93;;
32228;SDS011;18717;48.034;11.186;2024-01-30T12:33:27;10.90;;;10.35;;
32228;SDS011;18717;48.034;11.186;2024-01-30T12:35:55;10.82;;;10.23;;
32228;SDS011;18717;48.034;11.186;2024-01-30T12:38:29;10.48;;;9.98;;
32228;SDS011;18717;48.034;11.186;2024-01-30T12:40:57;10.55;;;9.95;;
32228;SDS011;18717;48.034;11.186;2024-01-30T12:43:24;11.05;;;10.45;;
32228;SDS011;18717;48.034;11.186;2024-01-30T12:46:04;11.02;;;9.95;;
32228;SDS011;18717;48.034;11.186;2024-01-30T12:48:34;11.45;;;9.90;;
32228;SDS011;18717;48.034;11.186;2024-01-30T12:51:02;10.77;;;10.18;;
32228;SDS011;18717;48.034;11.186;2024-01-30T12:53:30;12.05;;;10.35;;
32228;SDS011;18717;48.034;11.186;2024-01-30T12:55:58;18.05;;;11.30;;
32228;SDS011;18717;48.034;11.186;2024-01-30T12:58:26;10.23;;;9.63;;
32228;SDS011;18717;48.034;11.186;2024-01-30T13:00:54;11.00;;;10.05;;
32228;SDS011;18717;48.034;11.186;2024-01-30T13:03:22;10.35;;;9.75;;
32228;SDS011;18717;48.034;11.186;2024-01-30T13:05:51;10.73;;;10.02;;
32228;SDS011;18717;48.034;11.186;2024-01-30T13:08:19;11.35;;;10.57;;
32228;SDS011;18717;48.034;11.186;2024-01-30T13:10:47;10.48;;;9.98;;
32228;SDS011;18717;48.034;11.186;2024-01-30T13:13:15;11.50;;;10.80;;
32228;SDS011;18717;48.034;11.186;2024-01-30T13:15:46;10.88;;;10.07;;
32228;SDS011;18717;48.034;11.186;2024-01-30T13:18:14;10.90;;;10.20;;
32228;SDS011;18717;48.034;11.186;2024-01-30T13:20:42;11.85;;;11.15;;
32228;SDS011;18717;48.034;11.186;2024-01-30T13:23:11;10.48;;;9.98;;
32228;SDS011;18717;48.034;11.186;2024-01-30T13:25:39;12.32;;;11.25;;
32228;SDS011;18717;48.034;11.186;2024-01-30T13:28:07;11.52;;;10.65;;
32228;SDS011;18717;48.034;11.186;2024-01-30T13:30:35;11.50;;;10.73;;
32228;SDS011;18717;48.034;11.186;2024-01-30T13:33:03;11.82;;;10.73;;
32228;SDS011;18717;48.034;11.186;2024-01-30T13:35:33;11.52;;;10.93;;
32228;SDS011;18717;48.034;11.186;2024-01-30T13:38:01;11.00;;;10.38;;
32228;SDS011;18717;48.034;11.186;2024-01-30T13:40:30;11.35;;;10.75;;
32228;SDS011;18717;48.034;11.186;2024-01-30T13:42:58;11.48;;;10.73;;
32228;SDS011;18717;48.034;11.186;2024-01-30T13:45:26;11.15;;;10.55;;
32228;SDS011;18717;48.034;11.186;2024-01-30T13:47:54;12.10;;;10.98;;
32228;SDS011;18717;48.034;11.186;2024-01-30T13:50:22;11.02;;;10.43;;
32228;SDS011;18717;48.034;11.186;2024-01-30T13:52:49;11.63;;;10.93;;
32228;SDS011;18717;48.034;11.186;2024-01-30T13:55:18;11.45;;;10.63;;
32228;SDS011;18717;48.034;11.186;2024-01-30T13:57:47;10.80;;;10.00;;
32228;SDS011;18717;48.034;11.186;2024-01-30T14:00:17;11.80;;;10.60;;
32228;SDS011;18717;48.034;11.186;2024-01-30T14:02:47;11.63;;;10.82;;
32228;SDS011;18717;48.034;11.186;2024-01-30T14:05:15;11.35;;;10.52;;
32228;SDS011;18717;48.034;11.186;2024-01-30T14:07:44;10.88;;;10.27;;
32228;SDS011;18717;48.034;11.186;2024-01-30T14:10:12;11.23;;;10.55;;
32228;SDS011;18717;48.034;11.186;2024-01-30T14:12:41;11.13;;;10.32;;
32228;SDS011;18717;48.034;11.186;2024-01-30T14:15:11;11.52;;;10.60;;
32228;SDS011;18717;48.034;11.186;2024-01-30T14:17:53;11.05;;;10.25;;
32228;SDS011;18717;48.034;11.186;2024-01-30T14:20:22;13.57;;;12.32;;
32228;SDS011;18717;48.034;11.186;2024-01-30T14:22:50;11.43;;;10.35;;
32228;SDS011;18717;48.034;11.186;2024-01-30T14:25:19;11.23;;;10.50;;
32228;SDS011;18717;48.034;11.186;2024-01-30T14:27:47;11.18;;;10.25;;
32228;SDS011;18717;48.034;11.186;2024-01-30T14:30:20;10.88;;;10.23;;